Time;durP1;ratioP1;P1;durP2;ratioP2;P2;SDS_P1;SDS_P2;PMS_P1;PMS_P2;Temp;Humidity;BMP_temperature;BMP_pressure;BME280_temperature;BME280_humidity;BME280_pressure;Samples;Min_cycle;Max_cycle;Signal;HPM_P1;HPM_P2
2023/08/03 00:00:31;;;;;;;2.88;1.60;;;;;;;15.58;100.00;98862.41;6156667;23;20029;-81
2023/08/03 00:02:56;;;;;;;4.30;1.77;;;;;;;15.46;100.00;98847.28;6156593;23;20284;-86
2023/08/03 00:05:22;;;;;;;4.60;1.80;;;;;;;15.65;100.00;98879.13;6157115;23;20006;-83
2023/08/03 00:07:48;;;;;;;2.60;1.70;;;;;;;15.62;100.00;98876.94;6156718;23;20013;-83
2023/08/03 00:10:13;;;;;;;6.78;2.03;;;;;;;15.48;100.00;98857.72;6157031;23;20006;-84
2023/08/03 00:12:39;;;;;;;4.22;1.98;;;;;;;15.49;100.00;98856.69;6157017;23;20084;-82
2023/08/03 00:15:05;;;;;;;3.22;2.00;;;;;;;15.57;100.00;98874.16;6157340;23;20001;-82
2023/08/03 00:17:30;;;;;;;8.63;2.40;;;;;;;15.58;100.00;98878.44;6157132;23;20036;-83
2023/08/03 00:19:56;;;;;;;5.68;2.70;;;;;;;15.60;100.00;98876.38;6130916;23;20406;-82
2023/08/03 00:22:21;;;;;;;5.20;2.50;;;;;;;15.46;100.00;98859.84;6157355;23;20012;-84
2023/08/03 00:24:46;;;;;;;6.45;3.28;;;;;;;15.57;100.00;98871.50;6131139;23;20009;-85
2023/08/03 00:27:12;;;;;;;6.28;3.17;;;;;;;15.57;100.00;98872.31;6131790;23;20092;-84
2023/08/03 00:29:37;;;;;;;9.82;3.75;;;;;;;15.70;100.00;98902.44;6157367;23;20006;-83
2023/08/03 00:32:04;;;;;;;8.45;3.90;;;;;;;15.66;100.00;98899.44;6130973;23;20060;-83
2023/08/03 00:34:29;;;;;;;6.30;3.85;;;;;;;15.62;100.00;98889.47;6157038;23;20005;-84
2023/08/03 00:36:55;;;;;;;9.27;4.20;;;;;;;15.66;100.00;98904.78;6131017;23;20017;-81
2023/08/03 00:39:20;;;;;;;10.77;4.28;;;;;;;15.57;100.00;98900.88;6156972;23;20009;-81
2023/08/03 00:41:46;;;;;;;9.07;4.50;;;;;;;15.63;100.00;98913.28;6157703;23;20009;-84
2023/08/03 00:44:11;;;;;;;10.43;5.10;;;;;;;15.70;100.00;98913.13;6157066;23;20005;-85
2023/08/03 00:46:36;;;;;;;15.80;5.53;;;;;;;15.55;100.00;98911.00;6156722;23;20013;-84
2023/08/03 00:49:02;;;;;;;10.77;5.30;;;;;;;15.66;100.00;98946.72;6130559;23;20011;-83
2023/08/03 00:51:27;;;;;;;9.27;5.05;;;;;;;15.59;100.00;98938.84;6158276;23;20005;-84
2023/08/03 00:53:53;;;;;;;10.07;5.93;;;;;;;15.66;100.00;98950.19;6158667;23;20334;-86
2023/08/03 00:56:18;;;;;;;11.73;6.07;;;;;;;15.68;100.00;98953.44;6159047;23;20013;-85
2023/08/03 00:58:44;;;;;;;13.93;6.03;;;;;;;15.54;100.00;98941.44;6159190;23;20009;-84
2023/08/03 01:01:09;;;;;;;14.88;6.88;;;;;;;15.55;100.00;98956.41;6132717;23;20002;-87
2023/08/03 01:03:35;;;;;;;15.90;6.63;;;;;;;15.50;100.00;98959.00;6132856;23;20009;-85
2023/08/03 01:06:00;;;;;;;16.63;7.18;;;;;;;15.57;100.00;98967.66;6159015;23;20014;-89
2023/08/03 01:08:26;;;;;;;14.82;7.30;;;;;;;15.54;100.00;98960.16;6158962;23;20100;-87
2023/08/03 01:10:52;;;;;;;16.58;7.53;;;;;;;15.53;100.00;98967.34;6159244;23;20010;-87
2023/08/03 01:13:18;;;;;;;14.70;6.78;;;;;;;15.52;100.00;98960.38;6159179;23;20001;-86
2023/08/03 01:15:44;;;;;;;15.90;7.32;;;;;;;15.63;100.00;98982.72;6132922;23;20033;-87
2023/08/03 01:18:09;;;;;;;16.52;7.13;;;;;;;15.53;100.00;98961.16;6133064;23;20010;-87
2023/08/03 01:20:37;;;;;;;12.23;6.88;;;;;;;15.59;100.00;98976.25;6159272;23;20016;-86
2023/08/03 01:23:06;;;;;;;11.75;6.53;;;;;;;15.68;100.00;98988.16;6159389;23;20016;-87
2023/08/03 01:25:33;;;;;;;16.42;6.22;;;;;;;15.65;100.00;98991.34;6159053;23;20006;-87
2023/08/03 01:27:58;;;;;;;16.02;6.40;;;;;;;15.68;100.00;98996.19;6133042;23;20064;-88
2023/08/03 01:30:24;;;;;;;12.95;5.93;;;;;;;15.58;100.00;98986.13;6159158;23;20426;-86
2023/08/03 01:32:50;;;;;;;13.77;6.30;;;;;;;15.68;100.00;99000.72;6132888;23;20390;-87
2023/08/03 01:35:16;;;;;;;10.43;5.70;;;;;;;15.76;100.00;99019.03;6159218;23;20013;-86
2023/08/03 01:37:41;;;;;;;9.93;5.90;;;;;;;15.68;100.00;99006.88;6158994;23;20342;-87
2023/08/03 01:40:08;;;;;;;9.25;5.60;;;;;;;15.71;100.00;99022.44;6159433;23;20033;-88
2023/08/03 01:42:33;;;;;;;10.88;5.07;;;;;;;15.74;100.00;99027.28;6159106;23;20009;-86
2023/08/03 01:44:58;;;;;;;12.05;5.10;;;;;;;15.72;100.00;99020.56;6159482;23;20044;-87
2023/08/03 01:47:24;;;;;;;9.57;5.13;;;;;;;15.71;100.00;99025.09;6134264;23;20086;-87
2023/08/03 01:49:49;;;;;;;11.05;4.95;;;;;;;15.64;100.00;99015.63;6160410;23;20006;-86
2023/08/03 01:52:14;;;;;;;10.27;4.43;;;;;;;15.47;100.00;98987.00;6160887;23;20009;-85
2023/08/03 01:54:40;;;;;;;9.88;4.20;;;;;;;15.50;100.00;98991.88;6161061;23;20004;-84
2023/08/03 01:57:05;;;;;;;9.70;3.83;;;;;;;15.54;100.00;99000.22;6163773;23;20033;-85
2023/08/03 01:59:31;;;;;;;14.00;3.83;;;;;;;15.57;100.00;99005.88;6172369;23;20006;-87
2023/08/03 02:01:56;;;;;;;6.53;3.22;;;;;;;15.59;100.00;99003.78;6154247;23;20009;-85
2023/08/03 02:04:21;;;;;;;8.68;3.30;;;;;;;15.54;100.00;98995.66;6178779;23;20005;-85
2023/08/03 02:06:51;;;;;;;7.85;3.10;;;;;;;15.70;100.00;99026.13;6178080;23;20024;-85
2023/08/03 02:09:17;;;;;;;9.85;3.03;;;;;;;15.63;100.00;99028.16;6151333;23;20446;-85
2023/08/03 02:11:43;;;;;;;8.02;3.20;;;;;;;15.72;100.00;99028.56;6165108;23;20365;-85
2023/08/03 02:14:11;;;;;;;10.40;3.67;;;;;;;15.65;100.00;99017.22;6159770;23;20005;-85
2023/08/03 02:16:36;;;;;;;11.82;3.75;;;;;;;15.62;100.00;99013.19;6159424;23;20081;-87
2023/08/03 02:19:01;;;;;;;13.65;4.25;;;;;;;15.54;100.00;99005.56;6133145;23;20087;-86
2023/08/03 02:21:27;;;;;;;12.52;4.05;;;;;;;15.58;100.00;99009.34;6158890;23;20065;-86
2023/08/03 02:23:53;;;;;;;13.07;4.40;;;;;;;15.55;100.00;99012.53;6158343;23;20001;-86
2023/08/03 02:26:18;;;;;;;18.40;4.50;;;;;;;15.61;100.00;99019.56;6158593;23;20011;-86
2023/08/03 02:28:44;;;;;;;16.08;4.55;;;;;;;15.42;100.00;99003.75;6157965;23;20085;-84
2023/08/03 02:31:09;;;;;;;18.77;5.60;;;;;;;15.52;100.00;99008.47;6131566;23;20453;-84
2023/08/03 02:33:34;;;;;;;15.27;4.70;;;;;;;15.62;100.00;99029.22;6156318;23;20009;-85
2023/08/03 02:36:00;;;;;;;18.35;4.90;;;;;;;15.62;100.00;99023.88;6131648;23;20005;-85
2023/08/03 02:38:25;;;;;;;17.00;4.78;;;;;;;15.51;100.00;99006.03;6158434;23;20005;-85
2023/08/03 02:40:51;;;;;;;19.13;5.10;;;;;;;15.51;100.00;99014.88;6158097;23;20029;-85
2023/08/03 02:43:16;;;;;;;19.08;5.03;;;;;;;15.56;100.00;99019.47;6157802;23;20012;-85
2023/08/03 02:45:41;;;;;;;16.75;5.25;;;;;;;15.58;100.00;99012.84;6158025;23;20006;-87
2023/08/03 02:48:07;;;;;;;15.10;5.07;;;;;;;15.50;100.00;98999.88;6132013;23;20013;-85
2023/08/03 02:50:32;;;;;;;18.77;5.88;;;;;;;15.59;100.00;99027.00;6131890;23;20005;-83
2023/08/03 02:52:57;;;;;;;20.42;5.10;;;;;;;15.62;100.00;99015.84;6157762;23;20431;-86
2023/08/03 02:55:23;;;;;;;19.00;4.63;;;;;;;15.39;100.00;98998.88;6131521;23;20009;-84
2023/08/03 02:57:48;;;;;;;20.13;5.65;;;;;;;15.52;100.00;99024.50;6157947;23;20013;-84
2023/08/03 03:00:13;;;;;;;20.77;5.10;;;;;;;15.53;100.00;99019.94;6131562;23;20017;-84
2023/08/03 03:02:39;;;;;;;19.50;5.07;;;;;;;15.53;100.00;99025.28;6158126;23;20073;-86
2023/08/03 03:05:04;;;;;;;19.95;5.00;;;;;;;15.49;100.00;99021.50;6132334;23;20013;-83
2023/08/03 03:07:31;;;;;;;18.55;4.50;;;;;;;15.52;100.00;99015.66;6158028;23;20018;-85
2023/08/03 03:09:57;;;;;;;16.23;4.50;;;;;;;15.53;100.00;99047.47;6131848;23;20005;-86
2023/08/03 03:12:22;;;;;;;15.73;4.57;;;;;;;15.52;100.00;99042.38;6131514;23;20434;-86
2023/08/03 03:14:47;;;;;;;18.45;5.15;;;;;;;15.56;100.00;99052.34;6157763;23;20006;-84
2023/08/03 03:17:13;;;;;;;16.23;4.63;;;;;;;15.56;100.00;99052.34;6157962;23;20006;-84
2023/08/03 03:19:38;;;;;;;17.35;4.68;;;;;;;15.50;100.00;99041.81;6157755;23;20466;-85
2023/08/03 03:22:04;;;;;;;13.98;4.43;;;;;;;15.40;100.00;99037.88;6157910;23;20493;-84
2023/08/03 03:24:30;;;;;;;15.38;4.40;;;;;;;15.42;100.00;99029.63;6157649;23;20045;-84
2023/08/03 03:26:55;;;;;;;14.07;4.35;;;;;;;15.41;100.00;99039.53;6157525;23;20033;-84
2023/08/03 03:29:20;;;;;;;13.30;4.30;;;;;;;15.40;100.00;99043.22;6157572;23;20060;-85
2023/08/03 03:31:46;;;;;;;12.55;3.95;;;;;;;15.32;100.00;99035.59;6157498;23;20005;-88
2023/08/03 03:34:12;;;;;;;18.60;4.30;;;;;;;15.37;100.00;99041.03;6157734;23;20108;-86
2023/08/03 03:36:37;;;;;;;14.00;4.15;;;;;;;15.33;100.00;99064.75;6130113;23;20005;-84
2023/08/03 03:39:02;;;;;;;14.82;4.10;;;;;;;15.34;100.00;99070.88;6156188;23;20017;-84
2023/08/03 03:41:28;;;;;;;14.25;3.95;;;;;;;15.43;100.00;99085.50;6157602;23;20013;-84
2023/08/03 03:43:53;;;;;;;14.55;4.10;;;;;;;15.32;100.00;99067.63;6157371;23;20001;-83
2023/08/03 03:46:18;;;;;;;10.50;3.60;;;;;;;15.34;100.00;99070.88;6157597;23;20072;-84
2023/08/03 03:48:43;;;;;;;12.98;3.95;;;;;;;15.29;100.00;99073.47;6157497;23;20006;-85
2023/08/03 03:51:09;;;;;;;17.75;4.32;;;;;;;15.36;100.00;99095.50;6131530;23;20064;-84
2023/08/03 03:53:34;;;;;;;13.68;4.25;;;;;;;15.41;100.00;99108.13;6157496;23;20005;-86
2023/08/03 03:55:59;;;;;;;10.95;3.90;;;;;;;15.26;100.00;99097.97;6157476;23;20002;-84
2023/08/03 03:58:25;;;;;;;12.18;3.95;;;;;;;15.25;100.00;99094.47;6157394;23;20442;-84
2023/08/03 04:00:50;;;;;;;11.45;3.88;;;;;;;15.26;100.00;99100.63;6130477;23;20029;-84
2023/08/03 04:03:15;;;;;;;10.45;3.63;;;;;;;15.37;100.00;99121.16;6157404;23;20001;-85
2023/08/03 04:05:41;;;;;;;9.23;3.50;;;;;;;15.19;100.00;99090.88;6157496;23;20006;-83
2023/08/03 04:08:06;;;;;;;13.32;3.65;;;;;;;15.23;100.00;99091.22;6157160;23;20096;-85
2023/08/03 04:10:35;;;;;;;9.93;3.78;;;;;;;15.33;100.00;99126.16;6157949;23;20005;-82
2023/08/03 04:13:00;;;;;;;11.35;3.30;;;;;;;15.41;100.00;99124.16;6131185;23;20068;-86
2023/08/03 04:15:26;;;;;;;10.23;3.85;;;;;;;15.35;100.00;99136.63;6131815;23;20378;-85
2023/08/03 04:17:51;;;;;;;7.30;3.13;;;;;;;15.29;100.00;99129.53;6157730;23;20009;-84
2023/08/03 04:20:16;;;;;;;12.00;3.38;;;;;;;15.26;100.00;99127.31;6131329;23;20010;-84
2023/08/03 04:22:42;;;;;;;12.77;3.40;;;;;;;15.23;100.00;99122.44;6157656;23;20449;-86
2023/08/03 04:25:08;;;;;;;10.98;3.70;;;;;;;15.29;100.00;99132.22;6158476;23;20001;-85
2023/08/03 04:27:33;;;;;;;10.65;3.40;;;;;;;15.35;100.00;99151.81;6158803;23;20155;-85
2023/08/03 04:29:59;;;;;;;8.60;3.50;;;;;;;15.23;100.00;99133.13;6158368;23;20435;-83
2023/08/03 04:32:24;;;;;;;7.00;3.30;;;;;;;15.29;100.00;99148.22;6158641;23;20005;-81
2023/08/03 04:34:51;;;;;;;10.15;3.30;;;;;;;15.27;100.00;99166.31;6158523;23;20002;-82
2023/08/03 04:37:16;;;;;;;11.23;3.50;;;;;;;15.30;100.00;99176.56;6158934;23;20002;-86
2023/08/03 04:39:41;;;;;;;8.15;3.20;;;;;;;15.33;100.00;99178.75;6158775;23;20016;-86
2023/08/03 04:42:07;;;;;;;6.75;3.22;;;;;;;15.18;100.00;99169.38;6158724;23;20002;-84
2023/08/03 04:44:32;;;;;;;6.38;2.97;;;;;;;15.18;100.00;99179.22;6159038;23;20012;-83
2023/08/03 04:46:58;;;;;;;7.00;2.80;;;;;;;15.16;100.00;99174.09;6158861;23;20494;-84
2023/08/03 04:49:25;;;;;;;6.70;2.80;;;;;;;15.23;100.00;99173.16;6133412;23;20009;-84
2023/08/03 04:51:51;;;;;;;6.03;2.92;;;;;;;15.22;100.00;99179.56;6159890;23;20012;-86
2023/08/03 04:54:16;;;;;;;6.78;2.70;;;;;;;15.27;100.00;99193.03;6159501;23;20010;-87
2023/08/03 04:56:41;;;;;;;4.47;2.63;;;;;;;15.22;100.00;99191.06;6159402;23;20374;-88
2023/08/03 04:59:07;;;;;;;7.05;2.60;;;;;;;15.21;100.00;99184.09;6159461;23;20070;-87
2023/08/03 05:01:32;;;;;;;6.40;2.80;;;;;;;15.27;100.00;99198.38;6159228;23;20013;-88
2023/08/03 05:03:59;;;;;;;5.63;3.08;;;;;;;15.26;100.00;99202.09;6159262;23;20009;-90
2023/08/03 05:06:25;;;;;;;5.10;2.90;;;;;;;15.25;100.00;99200.47;6159320;23;20385;-89
2023/08/03 05:08:50;;;;;;;7.05;3.05;;;;;;;15.27;100.00;99203.72;6133549;23;20012;-88
2023/08/03 05:11:17;;;;;;;8.27;2.92;;;;;;;15.33;100.00;99219.63;6159543;23;20006;-87
2023/08/03 05:13:42;;;;;;;7.00;2.90;;;;;;;15.35;100.00;99222.06;6159490;23;20002;-87
2023/08/03 05:16:07;;;;;;;5.55;2.35;;;;;;;15.39;100.00;99227.75;6159117;23;20009;-87
2023/08/03 05:18:33;;;;;;;6.60;2.70;;;;;;;15.40;100.00;99235.53;6159085;23;20001;-89
2023/08/03 05:20:58;;;;;;;7.43;2.67;;;;;;;15.23;100.00;99216.72;6158704;23;20064;-84
2023/08/03 05:23:23;;;;;;;8.05;2.50;;;;;;;15.27;100.00;99230.41;6157629;23;20120;-85
2023/08/03 05:25:56;;;;;;;6.80;2.83;;;;;;;15.27;100.00;99230.41;6158065;23;20013;-86
2023/08/03 05:28:22;;;;;;;;;;;;;;;15.47;100.00;99264.78;6159673;23;20008;-88
2023/08/03 05:30:47;;;;;;;9.48;2.42;;;;;;;15.35;100.00;99254.13;6159618;23;19905;-87
2023/08/03 05:33:13;;;;;;;8.30;2.70;;;;;;;15.25;100.00;99240.53;6159114;23;20056;-91
2023/08/03 05:35:38;;;;;;;9.88;2.47;;;;;;;15.23;100.00;99254.09;6159170;23;20032;-89
2023/08/03 05:38:03;;;;;;;7.97;2.65;;;;;;;15.23;100.00;99245.25;6159212;23;20423;-89
2023/08/03 05:40:29;;;;;;;11.80;2.85;;;;;;;15.32;100.00;99266.09;6132935;23;20012;-90
2023/08/03 05:42:54;;;;;;;12.10;2.75;;;;;;;15.34;100.00;99273.84;6133042;23;20053;-88
2023/08/03 05:45:43;;;;;;;8.15;2.60;;;;;;;15.42;100.00;99270.84;6159132;23;20017;-89
2023/08/03 05:48:17;;;;;;;8.82;2.70;;;;;;;15.42;100.00;99275.34;6132584;23;20005;-91
2023/08/03 05:50:47;;;;;;;10.95;2.47;;;;;;;15.44;100.00;99290.09;6132798;23;20013;-88
2023/08/03 05:53:13;;;;;;;8.48;2.60;;;;;;;15.36;100.00;99281.63;6132846;23;20005;-88
2023/08/03 05:55:39;;;;;;;12.32;2.60;;;;;;;15.43;100.00;99293.81;6132659;23;20316;-89
2023/08/03 05:58:05;;;;;;;10.35;2.70;;;;;;;15.45;100.00;99301.63;6158686;23;20013;-90
2023/08/03 06:00:31;;;;;;;9.50;2.80;;;;;;;15.35;100.00;99296.84;6158580;23;20084;-87
2023/08/03 06:02:57;;;;;;;12.48;2.63;;;;;;;15.24;100.00;99281.63;6158656;23;20048;-88
2023/08/03 06:05:47;;;;;;;8.05;2.45;;;;;;;15.45;100.00;99313.09;6132536;23;20017;-88
2023/08/03 06:08:15;;;;;;;12.55;2.83;;;;;;;15.44;100.00;99322.16;6132337;23;20024;-86
2023/08/03 06:10:41;;;;;;;11.23;2.53;;;;;;;15.38;100.00;99320.41;6132888;23;20012;-89
2023/08/03 06:13:12;;;;;;;10.05;2.38;;;;;;;15.35;100.00;99309.38;6159392;23;20036;-90
2023/08/03 06:15:39;;;;;;;10.18;2.70;;;;;;;15.50;100.00;99330.31;6133186;23;20010;-91
2023/08/03 06:18:07;;;;;;;11.43;2.60;;;;;;;15.46;100.00;99337.97;6132846;23;20051;-91
2023/08/03 06:20:34;;;;;;;11.48;2.55;;;;;;;15.47;100.00;99331.56;6132730;23;20015;-89
2023/08/03 06:23:00;;;;;;;12.25;2.78;;;;;;;15.39;100.00;99319.38;6158943;23;20005;-89
2023/08/03 06:25:27;;;;;;;11.02;2.60;;;;;;;15.56;100.00;99350.75;6132437;23;20002;-87
2023/08/03 06:27:52;;;;;;;11.07;2.58;;;;;;;15.53;100.00;99351.19;6158708;23;20422;-90
2023/08/03 06:30:18;;;;;;;12.23;2.75;;;;;;;15.46;100.00;99330.75;6158542;23;20039;-88
2023/08/03 06:32:44;;;;;;;11.40;2.85;;;;;;;15.44;100.00;99332.84;6158965;23;20005;-92
2023/08/03 06:35:35;;;;;;;9.82;2.90;;;;;;;15.51;100.00;99348.78;6158232;23;20009;-88
2023/08/03 06:38:02;;;;;;;10.68;2.42;;;;;;;15.42;100.00;99334.94;6158074;23;20072;-89
2023/08/03 06:40:27;;;;;;;13.25;2.85;;;;;;;15.45;100.00;99345.16;6158045;23;20450;-87
2023/08/03 06:42:52;;;;;;;10.88;2.75;;;;;;;15.48;100.00;99359.09;6131954;23;20014;-88
2023/08/03 06:45:18;;;;;;;9.73;2.90;;;;;;;15.52;100.00;99360.25;6158166;23;20009;-89
2023/08/03 06:47:43;;;;;;;8.60;2.75;;;;;;;15.52;100.00;99371.78;6131600;23;20061;-87
2023/08/03 06:50:09;;;;;;;11.05;3.00;;;;;;;15.42;100.00;99353.63;6131351;23;20044;-89
2023/08/03 06:52:36;;;;;;;9.90;2.55;;;;;;;15.37;100.00;99356.19;6131869;23;20490;-89
2023/08/03 06:55:01;;;;;;;8.75;2.53;;;;;;;15.50;100.00;99367.69;6132246;23;20008;-87
2023/08/03 06:57:26;;;;;;;8.95;2.40;;;;;;;15.44;100.00;99375.59;6132106;23;20009;-87
2023/08/03 06:59:55;;;;;;;8.02;2.50;;;;;;;15.44;100.00;99375.59;6132187;23;20021;-88
2023/08/03 07:02:21;;;;;;;9.52;2.40;;;;;;;15.53;100.00;99383.25;6158324;23;20006;-87
2023/08/03 07:04:46;;;;;;;5.28;2.05;;;;;;;15.70;100.00;99408.25;6158453;23;20010;-88
2023/08/03 07:07:14;;;;;;;8.75;2.67;;;;;;;15.60;100.00;99405.34;6158003;23;20016;-91
2023/08/03 07:09:39;;;;;;;6.10;1.85;;;;;;;15.70;100.00;99416.28;6158559;23;20033;-88
2023/08/03 07:12:09;;;;;;;9.40;2.20;;;;;;;15.66;100.00;99409.78;6157803;23;20001;-91
2023/08/03 07:14:34;;;;;;;11.80;2.47;;;;;;;15.71;100.00;99423.25;6158081;23;20008;-88
2023/08/03 07:16:59;;;;;;;8.73;2.10;;;;;;;15.72;100.00;99413.38;6131389;23;20014;-88
2023/08/03 07:19:25;;;;;;;10.20;2.90;;;;;;;15.91;100.00;99427.47;6157815;23;20339;-90
2023/08/03 07:21:50;;;;;;;8.38;2.45;;;;;;;16.01;100.00;99437.59;6157713;23;20418;-91
2023/08/03 07:24:15;;;;;;;7.22;2.33;;;;;;;16.04;100.00;99433.66;6157633;23;20397;-87
2023/08/03 07:26:41;;;;;;;7.93;2.50;;;;;;;16.06;100.00;99435.06;6157038;23;20439;-87
2023/08/03 07:29:06;;;;;;;5.85;2.20;;;;;;;15.92;100.00;99429.13;6131422;23;20021;-89
2023/08/03 07:31:31;;;;;;;11.93;2.60;;;;;;;16.04;100.00;99447.03;6157212;23;20001;-86
2023/08/03 07:33:57;;;;;;;7.05;2.20;;;;;;;16.11;100.00;99450.38;6157197;23;20045;-87
2023/08/03 07:36:22;;;;;;;10.00;2.38;;;;;;;16.07;100.00;99438.53;6157496;23;20002;-87
2023/08/03 07:38:50;;;;;;;10.50;2.50;;;;;;;16.12;100.00;99433.28;6157614;23;20085;-89
2023/08/03 07:41:15;;;;;;;8.90;2.15;;;;;;;16.11;100.00;99442.38;6157327;23;20431;-87
2023/08/03 07:43:40;;;;;;;9.88;2.42;;;;;;;16.19;100.00;99455.38;6157112;23;20072;-87
2023/08/03 07:46:06;;;;;;;9.55;2.40;;;;;;;16.10;100.00;99436.19;6157035;23;20028;-88
2023/08/03 07:48:31;;;;;;;10.13;2.60;;;;;;;16.18;100.00;99464.44;6157124;23;20005;-87
2023/08/03 07:50:57;;;;;;;11.23;2.58;;;;;;;16.16;100.00;99471.06;6158095;23;20016;-85
2023/08/03 07:53:22;;;;;;;9.68;2.50;;;;;;;16.17;100.00;99483.44;6158912;23;20064;-86
2023/08/03 07:55:47;;;;;;;9.90;2.85;;;;;;;15.96;100.00;99451.69;6130461;23;20009;-87
2023/08/03 07:58:13;;;;;;;13.05;2.60;;;;;;;16.04;100.00;99471.09;6156932;23;20013;-86
2023/08/03 08:00:38;;;;;;;9.90;2.58;;;;;;;15.99;100.00;99467.25;6158959;23;20039;-86
2023/08/03 08:03:04;;;;;;;9.55;2.53;;;;;;;15.99;100.00;99479.81;6158693;23;20006;-87
2023/08/03 08:05:29;;;;;;;11.45;2.88;;;;;;;15.95;100.00;99487.47;6158855;23;20019;-85
2023/08/03 08:07:55;;;;;;;10.60;2.92;;;;;;;15.91;100.00;99501.47;6158429;23;20323;-87
2023/08/03 08:10:20;;;;;;;12.40;2.33;;;;;;;15.90;100.00;99508.72;6158758;23;20395;-86
2023/08/03 08:12:45;;;;;;;11.48;3.20;;;;;;;15.74;100.00;99492.28;6160905;23;20010;-85
2023/08/03 08:15:11;;;;;;;14.13;3.10;;;;;;;15.76;100.00;99504.59;6161103;23;20032;-88
2023/08/03 08:17:36;;;;;;;11.45;3.05;;;;;;;15.77;100.00;99512.38;6132617;23;20115;-86
2023/08/03 08:20:02;;;;;;;10.07;2.63;;;;;;;15.82;100.00;99525.06;6158627;23;20014;-83
2023/08/03 08:22:27;;;;;;;11.50;2.78;;;;;;;15.81;100.00;99539.47;6158710;23;20390;-85
2023/08/03 08:24:53;;;;;;;11.52;2.60;;;;;;;15.80;100.00;99527.16;6158307;23;20442;-84
2023/08/03 08:27:18;;;;;;;10.48;2.35;;;;;;;15.85;100.00;99533.44;6158545;23;20013;-86
2023/08/03 08:29:47;;;;;;;9.20;2.40;;;;;;;15.97;100.00;99549.53;6132639;23;20055;-88
2023/08/03 08:32:15;;;;;;;14.13;2.88;;;;;;;15.89;100.00;99536.44;6158664;23;20001;-86
2023/08/03 08:34:40;;;;;;;7.57;2.35;;;;;;;15.95;100.00;99562.34;6158487;23;20017;-86
2023/08/03 08:37:05;;;;;;;9.85;2.60;;;;;;;15.97;100.00;99570.94;6132032;23;20010;-85
2023/08/03 08:39:31;;;;;;;9.77;2.60;;;;;;;16.02;100.00;99566.75;6158176;23;20005;-86
2023/08/03 08:41:56;;;;;;;8.63;2.30;;;;;;;15.92;100.00;99556.56;6158036;23;20001;-84
2023/08/03 08:44:22;;;;;;;8.13;2.40;;;;;;;15.84;100.00;99560.41;6157614;23;20005;-85
2023/08/03 08:46:47;;;;;;;8.95;2.30;;;;;;;15.98;100.00;99593.94;6157646;23;20002;-84
2023/08/03 08:49:12;;;;;;;6.45;2.30;;;;;;;15.87;100.00;99576.81;6157815;23;20006;-84
2023/08/03 08:51:41;;;;;;;8.40;2.38;;;;;;;15.91;100.00;99582.50;6131446;23;20396;-85
2023/08/03 08:54:07;;;;;;;6.40;2.10;;;;;;;16.02;100.00;99598.84;6131474;23;20005;-84
2023/08/03 08:56:33;;;;;;;9.60;2.45;;;;;;;15.94;100.00;99584.75;6157906;23;20014;-84
2023/08/03 08:58:59;;;;;;;5.32;1.80;;;;;;;16.03;100.00;99605.81;6158319;23;20002;-83
2023/08/03 09:01:24;;;;;;;4.07;1.80;;;;;;;15.96;100.00;99601.38;6133242;23;20010;-84
2023/08/03 09:03:52;;;;;;;7.18;1.90;;;;;;;15.96;100.00;99605.91;6159183;23;20032;-82
2023/08/03 09:06:20;;;;;;;5.00;1.80;;;;;;;15.94;100.00;99614.16;6158976;23;20006;-84
2023/08/03 09:08:55;;;;;;;4.22;1.67;;;;;;;15.95;100.00;99626.50;6160555;23;20014;-85
2023/08/03 09:11:37;;;;;;;5.15;2.00;;;;;;;15.93;100.00;99620.53;6160821;23;20430;-83
2023/08/03 09:14:05;;;;;;;4.05;1.65;;;;;;;15.94;100.00;99632.06;6180880;23;20009;-84
2023/08/03 09:16:31;;;;;;;5.20;1.80;;;;;;;15.95;100.00;99642.53;6174733;23;20057;-82
2023/08/03 09:18:57;;;;;;;2.85;1.70;;;;;;;15.99;100.00;99643.69;6175877;23;20077;-83
2023/08/03 09:21:22;;;;;;;5.20;1.77;;;;;;;15.96;100.00;99644.16;6176268;23;20009;-84
2023/08/03 09:23:48;;;;;;;5.40;1.60;;;;;;;16.10;100.00;99654.66;6175623;23;20008;-84
2023/08/03 09:26:14;;;;;;;3.42;1.65;;;;;;;16.17;100.00;99670.63;6164328;23;20570;-83
2023/08/03 09:28:41;;;;;;;5.65;1.85;;;;;;;16.14;100.00;99667.34;6158560;23;20357;-82
2023/08/03 09:31:07;;;;;;;5.13;2.00;;;;;;;16.17;100.00;99675.97;6157715;23;20033;-84
2023/08/03 09:33:34;;;;;;;4.68;1.83;;;;;;;16.12;100.00;99679.31;6157611;23;20024;-82
2023/08/03 09:36:14;;;;;;;5.75;2.13;;;;;;;16.09;100.00;99677.91;6156956;23;20016;-84
2023/08/03 09:38:40;;;;;;;6.43;2.40;;;;;;;16.14;100.00;99694.09;6130724;23;20033;-83
2023/08/03 09:41:05;;;;;;;8.00;2.40;;;;;;;16.09;100.00;99693.16;6157096;23;20005;-83
2023/08/03 09:43:31;;;;;;;8.95;2.83;;;;;;;16.17;100.00;99698.16;6156957;23;20013;-84
2023/08/03 09:45:57;;;;;;;10.82;2.90;;;;;;;16.16;100.00;99685.84;6157176;23;20005;-83
2023/08/03 09:48:23;;;;;;;9.27;2.78;;;;;;;16.24;100.00;99709.59;6157212;23;20363;-84
2023/08/03 09:50:56;;;;;;;9.18;2.80;;;;;;;16.37;100.00;99721.16;6157335;23;20068;-83
2023/08/03 09:53:30;;;;;;;10.88;3.03;;;;;;;16.41;100.00;99725.00;6130838;23;20067;-83
2023/08/03 09:56:00;;;;;;;11.07;2.70;;;;;;;16.43;100.00;99728.25;6157004;23;20009;-84
2023/08/03 09:58:42;;;;;;;11.25;3.13;;;;;;;16.38;100.00;99730.81;6157522;23;20005;-84
2023/08/03 10:01:12;;;;;;;12.98;3.20;;;;;;;16.40;100.00;99744.78;6157442;23;20009;-84
2023/08/03 10:03:41;;;;;;;14.27;3.45;;;;;;;16.43;100.00;99744.31;6156973;23;20010;-86
2023/08/03 10:06:17;;;;;;;12.10;3.00;;;;;;;16.50;100.00;99749.59;6157149;23;20010;-86
2023/08/03 10:09:03;;;;;;;15.98;3.47;;;;;;;16.62;100.00;99752.31;6156886;23;20462;-83
2023/08/03 10:11:33;;;;;;;13.50;3.40;;;;;;;16.49;100.00;99727.34;6156751;23;20001;-83
2023/08/03 10:14:03;;;;;;;12.15;3.28;;;;;;;16.71;100.00;99750.91;6156812;23;20012;-84
2023/08/03 10:16:29;;;;;;;9.20;2.90;;;;;;;16.84;100.00;99765.16;6156870;23;20346;-84
2023/08/03 10:18:55;;;;;;;10.20;3.05;;;;;;;16.93;100.00;99766.47;6156727;23;20009;-83
2023/08/03 10:21:21;;;;;;;9.98;2.80;;;;;;;17.11;100.00;99764.78;6156743;23;20001;-85
2023/08/03 10:24:13;;;;;;;8.85;2.83;;;;;;;17.31;100.00;99765.25;6129904;23;20063;-84
2023/08/03 10:26:39;;;;;;;11.88;3.08;;;;;;;17.31;100.00;99754.53;6157146;23;20013;-82
2023/08/03 10:29:04;;;;;;;7.43;2.80;;;;;;;17.44;100.00;99758.00;6156869;23;20018;-85
2023/08/03 10:31:30;;;;;;;7.65;2.72;;;;;;;17.50;100.00;99777.72;6156501;23;20010;-83
2023/08/03 10:33:55;;;;;;;11.07;2.72;;;;;;;17.75;100.00;99777.44;6157000;23;20005;-84
2023/08/03 10:38:57;;;;;;;6.45;2.35;;;;;;;17.95;100.00;99778.94;6156915;23;20009;-84
2023/08/03 10:41:24;;;;;;;9.98;2.70;;;;;;;17.86;100.00;99792.69;6156503;23;20021;-84
2023/08/03 10:44:05;;;;;;;6.90;2.55;;;;;;;17.84;100.00;99799.34;6156261;23;20096;-84
2023/08/03 10:46:31;;;;;;;10.27;2.83;;;;;;;17.70;100.00;99804.13;6130575;23;20043;-85
2023/08/03 10:48:56;;;;;;;6.65;2.65;;;;;;;17.65;100.00;99791.44;6156349;23;20056;-84
2023/08/03 10:51:24;;;;;;;6.95;2.65;;;;;;;17.68;100.00;99800.88;6156211;23;20438;-82
2023/08/03 10:53:49;;;;;;;8.60;2.90;;;;;;;17.70;100.00;99801.47;6156249;23;20005;-83
2023/08/03 10:56:15;;;;;;;8.77;2.90;;;;;;;17.83;100.00;99811.97;6156319;23;20002;-84
2023/08/03 10:58:44;;;;;;;10.43;3.10;;;;;;;17.85;100.00;99800.97;6156149;23;20030;-84
2023/08/03 11:01:14;;;;;;;8.73;2.78;;;;;;;17.99;100.00;99817.63;6156320;23;20005;-84
2023/08/03 11:03:39;;;;;;;8.35;2.97;;;;;;;17.96;100.00;99818.91;6155973;23;20009;-84
2023/08/03 11:06:05;;;;;;;8.93;3.00;;;;;;;17.78;100.00;99806.47;6156244;23;20060;-85
2023/08/03 11:08:30;;;;;;;10.82;3.03;;;;;;;17.76;100.00;99819.28;6156048;23;20159;-83
2023/08/03 11:10:56;;;;;;;7.30;2.80;;;;;;;17.87;100.00;99834.56;6156003;23;20005;-83
2023/08/03 11:13:21;;;;;;;9.07;2.75;;;;;;;17.73;100.00;99827.81;6156083;23;20035;-83
2023/08/03 11:15:47;;;;;;;11.43;3.08;;;;;;;17.74;100.00;99838.31;6156273;23;20426;-85
2023/08/03 11:18:18;;;;;;;11.95;3.45;;;;;;;17.66;100.00;99840.53;6156120;23;20008;-84
2023/08/03 11:20:43;;;;;;;9.80;3.42;;;;;;;17.52;100.00;99840.72;6156212;23;20005;-83